sensor_id;sensor_type;location;lat;lon;timestamp;temperature;humidity
6357;DHT22;3211;53.452;-2.264;2023-08-12T00:00:18;17.60;4.80
6357;DHT22;3211;53.452;-2.264;2023-08-12T00:03:00;17.50;85.60
6357;DHT22;3211;53.452;-2.264;2023-08-12T00:05:42;17.40;99.90
6357;DHT22;3211;53.452;-2.264;2023-08-12T00:08:24;17.40;99.90
6357;DHT22;3211;53.452;-2.264;2023-08-12T00:11:08;17.40;99.90
6357;DHT22;3211;53.452;-2.264;2023-08-12T00:13:50;17.50;99.90
6357;DHT22;3211;53.452;-2.264;2023-08-12T00:16:32;17.40;99.90
6357;DHT22;3211;53.452;-2.264;2023-08-12T00:19:14;17.50;99.90
6357;DHT22;3211;53.452;-2.264;2023-08-12T00:21:56;17.40;99.90
6357;DHT22;3211;53.452;-2.264;2023-08-12T00:24:38;17.30;99.90
6357;DHT22;3211;53.452;-2.264;2023-08-12T00:27:21;17.40;99.90
6357;DHT22;3211;53.452;-2.264;2023-08-12T00:30:05;17.50;99.90
6357;DHT22;3211;53.452;-2.264;2023-08-12T00:32:47;17.50;99.90
6357;DHT22;3211;53.452;-2.264;2023-08-12T00:35:29;17.50;99.90
6357;DHT22;3211;53.452;-2.264;2023-08-12T00:38:11;17.50;99.90
6357;DHT22;3211;53.452;-2.264;2023-08-12T00:40:53;17.50;99.90
6357;DHT22;3211;53.452;-2.264;2023-08-12T00:43:36;17.50;99.90
6357;DHT22;3211;53.452;-2.264;2023-08-12T00:46:18;17.60;99.90
6357;DHT22;3211;53.452;-2.264;2023-08-12T00:49:00;17.40;99.90
6357;DHT22;3211;53.452;-2.264;2023-08-12T00:51:44;17.40;99.90
6357;DHT22;3211;53.452;-2.264;2023-08-12T00:54:26;17.60;99.90
6357;DHT22;3211;53.452;-2.264;2023-08-12T00:57:08;17.50;99.90
6357;DHT22;3211;53.452;-2.264;2023-08-12T00:59:53;17.60;99.90
6357;DHT22;3211;53.452;-2.264;2023-08-12T01:02:36;17.40;99.90
6357;DHT22;3211;53.452;-2.264;2023-08-12T01:05:19;17.40;99.90
6357;DHT22;3211;53.452;-2.264;2023-08-12T01:08:01;17.30;99.90
6357;DHT22;3211;53.452;-2.264;2023-08-12T01:10:55;17.20;99.90
6357;DHT22;3211;53.452;-2.264;2023-08-12T01:13:46;17.40;99.90
6357;DHT22;3211;53.452;-2.264;2023-08-12T01:16:37;17.30;99.90
6357;DHT22;3211;53.452;-2.264;2023-08-12T01:19:34;17.30;99.90
6357;DHT22;3211;53.452;-2.264;2023-08-12T01:22:16;17.30;99.90
6357;DHT22;3211;53.452;-2.264;2023-08-12T01:25:04;17.40;99.90
6357;DHT22;3211;53.452;-2.264;2023-08-12T01:27:46;17.30;99.90
6357;DHT22;3211;53.452;-2.264;2023-08-12T01:30:29;17.30;99.90
6357;DHT22;3211;53.452;-2.264;2023-08-12T01:33:16;17.30;99.90
6357;DHT22;3211;53.452;-2.264;2023-08-12T01:36:09;17.30;99.90
6357;DHT22;3211;53.452;-2.264;2023-08-12T01:38:51;17.30;99.90
6357;DHT22;3211;53.452;-2.264;2023-08-12T01:41:35;17.30;99.90
6357;DHT22;3211;53.452;-2.264;2023-08-12T01:44:18;17.30;99.90
6357;DHT22;3211;53.452;-2.264;2023-08-12T01:47:00;17.20;99.90
6357;DHT22;3211;53.452;-2.264;2023-08-12T01:49:43;17.30;99.90
6357;DHT22;3211;53.452;-2.264;2023-08-12T01:52:25;17.40;99.90
6357;DHT22;3211;53.452;-2.264;2023-08-12T01:55:08;17.30;99.90
6357;DHT22;3211;53.452;-2.264;2023-08-12T01:57:51;17.20;99.90
6357;DHT22;3211;53.452;-2.264;2023-08-12T02:00:33;17.30;99.90
6357;DHT22;3211;53.452;-2.264;2023-08-12T02:03:15;17.30;99.90
6357;DHT22;3211;53.452;-2.264;2023-08-12T02:05:57;17.20;99.90
6357;DHT22;3211;53.452;-2.264;2023-08-12T02:08:39;17.30;99.90
6357;DHT22;3211;53.452;-2.264;2023-08-12T02:11:21;17.20;99.90
6357;DHT22;3211;53.452;-2.264;2023-08-12T02:14:05;17.20;99.90
6357;DHT22;3211;53.452;-2.264;2023-08-12T02:16:47;17.20;99.90
6357;DHT22;3211;53.452;-2.264;2023-08-12T02:19:28;17.10;99.90
6357;DHT22;3211;53.452;-2.264;2023-08-12T02:22:10;17.10;99.90
6357;DHT22;3211;53.452;-2.264;2023-08-12T02:24:52;17.00;99.90
6357;DHT22;3211;53.452;-2.264;2023-08-12T02:27:34;17.10;99.90
6357;DHT22;3211;53.452;-2.264;2023-08-12T02:30:18;17.00;99.90
6357;DHT22;3211;53.452;-2.264;2023-08-12T02:33:00;17.00;99.90
6357;DHT22;3211;53.452;-2.264;2023-08-12T02:35:42;17.00;99.90
6357;DHT22;3211;53.452;-2.264;2023-08-12T02:38:24;17.00;99.90
6357;DHT22;3211;53.452;-2.264;2023-08-12T02:41:06;17.00;99.90
6357;DHT22;3211;53.452;-2.264;2023-08-12T02:43:48;17.00;99.90
6357;DHT22;3211;53.452;-2.264;2023-08-12T02:46:31;17.00;99.90
6357;DHT22;3211;53.452;-2.264;2023-08-12T02:49:13;17.00;99.90
6357;DHT22;3211;53.452;-2.264;2023-08-12T02:51:55;17.00;99.90
6357;DHT22;3211;53.452;-2.264;2023-08-12T02:54:37;17.00;99.90
6357;DHT22;3211;53.452;-2.264;2023-08-12T02:57:20;17.00;99.90
6357;DHT22;3211;53.452;-2.264;2023-08-12T03:00:02;17.00;99.90
6357;DHT22;3211;53.452;-2.264;2023-08-12T03:02:47;17.00;99.90
6357;DHT22;3211;53.452;-2.264;2023-08-12T03:05:31;17.00;99.90
6357;DHT22;3211;53.452;-2.264;2023-08-12T03:08:13;17.00;99.90
6357;DHT22;3211;53.452;-2.264;2023-08-12T03:10:59;16.90;99.90
6357;DHT22;3211;53.452;-2.264;2023-08-12T03:13:41;17.00;99.90
6357;DHT22;3211;53.452;-2.264;2023-08-12T03:16:23;17.00;99.90
6357;DHT22;3211;53.452;-2.264;2023-08-12T03:19:06;17.00;99.90
6357;DHT22;3211;53.452;-2.264;2023-08-12T03:21:48;17.00;99.90
6357;DHT22;3211;53.452;-2.264;2023-08-12T03:24:31;17.00;99.90
6357;DHT22;3211;53.452;-2.264;2023-08-12T03:27:13;17.00;99.90
6357;DHT22;3211;53.452;-2.264;2023-08-12T03:29:55;17.00;99.90
6357;DHT22;3211;53.452;-2.264;2023-08-12T03:32:37;17.00;99.90
6357;DHT22;3211;53.452;-2.264;2023-08-12T03:35:20;16.90;99.90
6357;DHT22;3211;53.452;-2.264;2023-08-12T03:38:02;17.00;99.90
6357;DHT22;3211;53.452;-2.264;2023-08-12T03:40:44;17.00;99.90
6357;DHT22;3211;53.452;-2.264;2023-08-12T03:43:26;16.90;99.90
6357;DHT22;3211;53.452;-2.264;2023-08-12T03:46:08;16.90;99.90
6357;DHT22;3211;53.452;-2.264;2023-08-12T03:48:50;16.90;99.90
6357;DHT22;3211;53.452;-2.264;2023-08-12T03:51:34;16.90;99.90
6357;DHT22;3211;53.452;-2.264;2023-08-12T03:54:15;16.80;99.90
6357;DHT22;3211;53.452;-2.264;2023-08-12T03:56:57;17.00;99.90
6357;DHT22;3211;53.452;-2.264;2023-08-12T03:59:40;16.90;99.90
6357;DHT22;3211;53.452;-2.264;2023-08-12T04:02:22;17.00;99.90
6357;DHT22;3211;53.452;-2.264;2023-08-12T04:05:04;16.90;99.90
6357;DHT22;3211;53.452;-2.264;2023-08-12T04:07:48;16.90;99.90
6357;DHT22;3211;53.452;-2.264;2023-08-12T04:10:30;16.90;99.90
6357;DHT22;3211;53.452;-2.264;2023-08-12T04:13:12;17.00;99.90
6357;DHT22;3211;53.452;-2.264;2023-08-12T04:15:54;17.10;99.90
6357;DHT22;3211;53.452;-2.264;2023-08-12T04:18:40;17.00;99.90
6357;DHT22;3211;53.452;-2.264;2023-08-12T04:21:22;17.00;99.90
6357;DHT22;3211;53.452;-2.264;2023-08-12T04:24:07;17.00;99.90
6357;DHT22;3211;53.452;-2.264;2023-08-12T04:26:49;16.90;1.00
6357;DHT22;3211;53.452;-2.264;2023-08-12T04:29:31;17.00;1.00
6357;DHT22;3211;53.452;-2.264;2023-08-12T04:32:13;16.90;1.00
6357;DHT22;3211;53.452;-2.264;2023-08-12T04:34:55;16.90;1.00
6357;DHT22;3211;53.452;-2.264;2023-08-12T04:37:37;16.90;1.00
6357;DHT22;3211;53.452;-2.264;2023-08-12T04:40:20;16.90;1.10
6357;DHT22;3211;53.452;-2.264;2023-08-12T04:43:03;17.00;1.00
6357;DHT22;3211;53.452;-2.264;2023-08-12T04:45:45;17.10;1.00
6357;DHT22;3211;53.452;-2.264;2023-08-12T04:48:27;17.10;1.00
6357;DHT22;3211;53.452;-2.264;2023-08-12T04:51:09;16.90;1.00
6357;DHT22;3211;53.452;-2.264;2023-08-12T04:53:51;17.00;1.00
6357;DHT22;3211;53.452;-2.264;2023-08-12T04:56:35;17.00;1.00
6357;DHT22;3211;53.452;-2.264;2023-08-12T04:59:17;17.10;1.00
6357;DHT22;3211;53.452;-2.264;2023-08-12T05:01:59;17.00;1.00
6357;DHT22;3211;53.452;-2.264;2023-08-12T05:04:41;17.10;1.00
6357;DHT22;3211;53.452;-2.264;2023-08-12T05:07:23;17.20;1.00
6357;DHT22;3211;53.452;-2.264;2023-08-12T05:10:05;17.20;1.00
6357;DHT22;3211;53.452;-2.264;2023-08-12T05:12:49;17.20;1.00
6357;DHT22;3211;53.452;-2.264;2023-08-12T05:15:32;17.10;1.00
6357;DHT22;3211;53.452;-2.264;2023-08-12T05:18:17;17.20;1.00
6357;DHT22;3211;53.452;-2.264;2023-08-12T05:20:59;17.30;99.90
6357;DHT22;3211;53.452;-2.264;2023-08-12T05:23:41;17.10;1.00
6357;DHT22;3211;53.452;-2.264;2023-08-12T05:26:23;17.20;1.00
6357;DHT22;3211;53.452;-2.264;2023-08-12T05:29:06;17.20;1.00
6357;DHT22;3211;53.452;-2.264;2023-08-12T05:31:48;17.20;1.00
6357;DHT22;3211;53.452;-2.264;2023-08-12T05:34:31;17.10;1.00
6357;DHT22;3211;53.452;-2.264;2023-08-12T05:37:13;17.00;10.40
6357;DHT22;3211;53.452;-2.264;2023-08-12T05:39:55;17.00;78.60
6357;DHT22;3211;53.452;-2.264;2023-08-12T05:42:37;17.00;90.00
6357;DHT22;3211;53.452;-2.264;2023-08-12T05:45:20;17.00;99.90
6357;DHT22;3211;53.452;-2.264;2023-08-12T05:48:03;17.00;99.90
6357;DHT22;3211;53.452;-2.264;2023-08-12T05:50:45;16.90;99.90
6357;DHT22;3211;53.452;-2.264;2023-08-12T05:53:27;16.90;99.90
6357;DHT22;3211;53.452;-2.264;2023-08-12T05:56:09;16.90;99.90
6357;DHT22;3211;53.452;-2.264;2023-08-12T05:58:51;16.90;99.90
6357;DHT22;3211;53.452;-2.264;2023-08-12T06:01:34;16.90;99.90
6357;DHT22;3211;53.452;-2.264;2023-08-12T06:04:16;17.00;99.90
6357;DHT22;3211;53.452;-2.264;2023-08-12T06:06:58;17.00;99.90
6357;DHT22;3211;53.452;-2.264;2023-08-12T06:09:40;17.10;99.90
6357;DHT22;3211;53.452;-2.264;2023-08-12T06:12:22;17.00;99.90
6357;DHT22;3211;53.452;-2.264;2023-08-12T06:15:05;17.00;99.90
6357;DHT22;3211;53.452;-2.264;2023-08-12T06:17:52;17.00;99.90
6357;DHT22;3211;53.452;-2.264;2023-08-12T06:20:34;17.00;99.90
6357;DHT22;3211;53.452;-2.264;2023-08-12T06:23:16;17.10;99.90
6357;DHT22;3211;53.452;-2.264;2023-08-12T06:25:58;17.10;99.90
6357;DHT22;3211;53.452;-2.264;2023-08-12T06:28:40;17.00;99.90
6357;DHT22;3211;53.452;-2.264;2023-08-12T06:31:22;17.00;99.90
6357;DHT22;3211;53.452;-2.264;2023-08-12T06:34:06;17.10;99.90
6357;DHT22;3211;53.452;-2.264;2023-08-12T06:36:48;17.00;99.90
6357;DHT22;3211;53.452;-2.264;2023-08-12T06:39:30;17.20;99.90
6357;DHT22;3211;53.452;-2.264;2023-08-12T06:42:12;17.10;99.90
6357;DHT22;3211;53.452;-2.264;2023-08-12T06:44:55;17.20;99.90
6357;DHT22;3211;53.452;-2.264;2023-08-12T06:47:37;17.30;99.90
6357;DHT22;3211;53.452;-2.264;2023-08-12T06:50:21;17.30;90.90
6357;DHT22;3211;53.452;-2.264;2023-08-12T06:53:03;17.30;99.90
6357;DHT22;3211;53.452;-2.264;2023-08-12T06:55:45;17.30;87.50
6357;DHT22;3211;53.452;-2.264;2023-08-12T06:58:27;17.30;99.90
6357;DHT22;3211;53.452;-2.264;2023-08-12T07:01:09;17.30;99.90
6357;DHT22;3211;53.452;-2.264;2023-08-12T07:03:51;17.30;99.90
6357;DHT22;3211;53.452;-2.264;2023-08-12T07:06:34;17.40;99.90
6357;DHT22;3211;53.452;-2.264;2023-08-12T07:09:16;17.40;40.60
6357;DHT22;3211;53.452;-2.264;2023-08-12T07:11:58;17.30;99.90
6357;DHT22;3211;53.452;-2.264;2023-08-12T07:14:42;17.30;99.90
6357;DHT22;3211;53.452;-2.264;2023-08-12T07:17:24;17.30;99.90
6357;DHT22;3211;53.452;-2.264;2023-08-12T07:20:07;17.30;99.90
6357;DHT22;3211;53.452;-2.264;2023-08-12T07:22:50;17.40;99.90
6357;DHT22;3211;53.452;-2.264;2023-08-12T07:25:32;17.30;99.90
6357;DHT22;3211;53.452;-2.264;2023-08-12T07:28:14;17.50;99.90
6357;DHT22;3211;53.452;-2.264;2023-08-12T07:30:56;17.60;99.90
6357;DHT22;3211;53.452;-2.264;2023-08-12T07:33:38;17.70;92.40
6357;DHT22;3211;53.452;-2.264;2023-08-12T07:36:20;17.70;1.00
6357;DHT22;3211;53.452;-2.264;2023-08-12T07:39:04;17.70;1.30
6357;DHT22;3211;53.452;-2.264;2023-08-12T07:41:47;17.70;1.00
6357;DHT22;3211;53.452;-2.264;2023-08-12T07:44:29;17.80;1.00
6357;DHT22;3211;53.452;-2.264;2023-08-12T07:47:10;17.70;1.00
6357;DHT22;3211;53.452;-2.264;2023-08-12T07:49:52;17.60;16.80
6357;DHT22;3211;53.452;-2.264;2023-08-12T07:52:34;17.60;99.90
6357;DHT22;3211;53.452;-2.264;2023-08-12T07:55:18;17.60;40.50
6357;DHT22;3211;53.452;-2.264;2023-08-12T07:58:00;17.70;99.90
6357;DHT22;3211;53.452;-2.264;2023-08-12T08:00:42;17.80;47.20
6357;DHT22;3211;53.452;-2.264;2023-08-12T08:03:25;17.90;1.00
6357;DHT22;3211;53.452;-2.264;2023-08-12T08:06:07;18.00;1.00
6357;DHT22;3211;53.452;-2.264;2023-08-12T08:08:49;18.00;1.00
6357;DHT22;3211;53.452;-2.264;2023-08-12T08:11:32;18.10;1.00
6357;DHT22;3211;53.452;-2.264;2023-08-12T08:14:14;18.00;1.00
6357;DHT22;3211;53.452;-2.264;2023-08-12T08:16:56;18.10;1.00
6357;DHT22;3211;53.452;-2.264;2023-08-12T08:19:38;18.10;1.00
6357;DHT22;3211;53.452;-2.264;2023-08-12T08:22:20;18.20;1.00
6357;DHT22;3211;53.452;-2.264;2023-08-12T08:25:03;18.20;1.00
6357;DHT22;3211;53.452;-2.264;2023-08-12T08:27:46;18.40;1.00
6357;DHT22;3211;53.452;-2.264;2023-08-12T08:30:28;18.30;1.00
6357;DHT22;3211;53.452;-2.264;2023-08-12T08:33:10;18.30;1.00
6357;DHT22;3211;53.452;-2.264;2023-08-12T08:35:53;18.10;1.00
6357;DHT22;3211;53.452;-2.264;2023-08-12T08:38:36;18.20;1.00
6357;DHT22;3211;53.452;-2.264;2023-08-12T08:41:18;18.10;1.00
6357;DHT22;3211;53.452;-2.264;2023-08-12T08:44:03;18.10;1.00
6357;DHT22;3211;53.452;-2.264;2023-08-12T08:46:46;18.10;1.00
6357;DHT22;3211;53.452;-2.264;2023-08-12T08:49:29;18.20;1.00
6357;DHT22;3211;53.452;-2.264;2023-08-12T08:52:12;18.40;1.00
6357;DHT22;3211;53.452;-2.264;2023-08-12T08:54:54;18.40;1.00
6357;DHT22;3211;53.452;-2.264;2023-08-12T08:57:37;18.50;1.00
6357;DHT22;3211;53.452;-2.264;2023-08-12T09:00:21;18.50;99.90
6357;DHT22;3211;53.452;-2.264;2023-08-12T09:03:05;18.40;1.00
6357;DHT22;3211;53.452;-2.264;2023-08-12T09:05:49;18.30;1.00
6357;DHT22;3211;53.452;-2.264;2023-08-12T09:08:32;18.40;1.00
6357;DHT22;3211;53.452;-2.264;2023-08-12T09:11:17;18.20;1.00
6357;DHT22;3211;53.452;-2.264;2023-08-12T09:13:59;18.30;1.00
6357;DHT22;3211;53.452;-2.264;2023-08-12T09:16:42;18.40;1.00
6357;DHT22;3211;53.452;-2.264;2023-08-12T09:19:24;18.60;1.00
6357;DHT22;3211;53.452;-2.264;2023-08-12T09:22:07;18.70;1.00
6357;DHT22;3211;53.452;-2.264;2023-08-12T09:24:50;18.70;99.90
6357;DHT22;3211;53.452;-2.264;2023-08-12T09:27:34;18.60;99.90
6357;DHT22;3211;53.452;-2.264;2023-08-12T09:30:17;18.80;99.90
6357;DHT22;3211;53.452;-2.264;2023-08-12T09:33:05;18.80;99.90
6357;DHT22;3211;53.452;-2.264;2023-08-12T09:35:49;18.90;99.90
6357;DHT22;3211;53.452;-2.264;2023-08-12T09:38:31;18.90;99.90
6357;DHT22;3211;53.452;-2.264;2023-08-12T09:41:14;18.90;99.90
6357;DHT22;3211;53.452;-2.264;2023-08-12T09:43:57;19.10;99.90
6357;DHT22;3211;53.452;-2.264;2023-08-12T09:46:39;19.20;99.90
6357;DHT22;3211;53.452;-2.264;2023-08-12T09:49:22;19.20;99.90
6357;DHT22;3211;53.452;-2.264;2023-08-12T09:52:05;19.30;99.90
6357;DHT22;3211;53.452;-2.264;2023-08-12T09:54:47;19.50;99.90
6357;DHT22;3211;53.452;-2.264;2023-08-12T09:57:32;19.50;99.90
6357;DHT22;3211;53.452;-2.264;2023-08-12T10:00:16;19.40;99.90
6357;DHT22;3211;53.452;-2.264;2023-08-12T10:02:59;19.50;99.90
6357;DHT22;3211;53.452;-2.264;2023-08-12T10:05:44;19.30;99.90
6357;DHT22;3211;53.452;-2.264;2023-08-12T10:08:27;19.10;99.90
6357;DHT22;3211;53.452;-2.264;2023-08-12T10:11:10;19.20;99.90
6357;DHT22;3211;53.452;-2.264;2023-08-12T10:13:52;19.20;1.00
6357;DHT22;3211;53.452;-2.264;2023-08-12T10:16:35;19.00;1.00
6357;DHT22;3211;53.452;-2.264;2023-08-12T10:19:20;19.30;1.00
6357;DHT22;3211;53.452;-2.264;2023-08-12T10:22:04;19.30;1.00
6357;DHT22;3211;53.452;-2.264;2023-08-12T10:24:47;19.60;99.90
6357;DHT22;3211;53.452;-2.264;2023-08-12T10:27:29;20.10;98.70
6357;DHT22;3211;53.452;-2.264;2023-08-12T10:30:13;20.20;1.00
6357;DHT22;3211;53.452;-2.264;2023-08-12T10:32:55;20.20;1.00
6357;DHT22;3211;53.452;-2.264;2023-08-12T10:35:41;20.40;1.00
6357;DHT22;3211;53.452;-2.264;2023-08-12T10:38:25;20.30;99.90
6357;DHT22;3211;53.452;-2.264;2023-08-12T10:41:15;20.20;1.00
6357;DHT22;3211;53.452;-2.264;2023-08-12T10:44:00;20.30;1.00
6357;DHT22;3211;53.452;-2.264;2023-08-12T10:46:50;20.30;1.00
6357;DHT22;3211;53.452;-2.264;2023-08-12T10:49:38;20.20;99.90
6357;DHT22;3211;53.452;-2.264;2023-08-12T10:52:27;20.20;99.90
6357;DHT22;3211;53.452;-2.264;2023-08-12T10:55:18;20.10;1.00
6357;DHT22;3211;53.452;-2.264;2023-08-12T10:58:01;20.40;1.00
6357;DHT22;3211;53.452;-2.264;2023-08-12T11:00:53;20.30;1.00
6357;DHT22;3211;53.452;-2.264;2023-08-12T11:03:35;20.40;1.00
6357;DHT22;3211;53.452;-2.264;2023-08-12T11:06:19;20.60;1.00
6357;DHT22;3211;53.452;-2.264;2023-08-12T11:09:02;20.70;99.90
6357;DHT22;3211;53.452;-2.264;2023-08-12T11:11:56;20.90;99.90
6357;DHT22;3211;53.452;-2.264;2023-08-12T11:14:54;20.70;99.90
6357;DHT22;3211;53.452;-2.264;2023-08-12T11:17:37;20.60;99.90
6357;DHT22;3211;53.452;-2.264;2023-08-12T11:20:19;20.80;99.90
6357;DHT22;3211;53.452;-2.264;2023-08-12T11:23:03;20.90;91.80
6357;DHT22;3211;53.452;-2.264;2023-08-12T11:25:45;20.80;99.90
6357;DHT22;3211;53.452;-2.264;2023-08-12T11:28:32;20.70;99.90
6357;DHT22;3211;53.452;-2.264;2023-08-12T11:31:14;20.70;99.90
6357;DHT22;3211;53.452;-2.264;2023-08-12T11:33:56;20.60;99.90
6357;DHT22;3211;53.452;-2.264;2023-08-12T11:36:39;20.50;99.90
6357;DHT22;3211;53.452;-2.264;2023-08-12T11:39:21;20.40;1.00
6357;DHT22;3211;53.452;-2.264;2023-08-12T11:42:04;20.10;1.00
6357;DHT22;3211;53.452;-2.264;2023-08-12T11:44:47;20.10;99.90
6357;DHT22;3211;53.452;-2.264;2023-08-12T11:47:29;20.00;99.90
6357;DHT22;3211;53.452;-2.264;2023-08-12T11:50:12;20.00;99.90
6357;DHT22;3211;53.452;-2.264;2023-08-12T11:52:56;20.10;99.90
6357;DHT22;3211;53.452;-2.264;2023-08-12T11:55:38;20.20;99.90
6357;DHT22;3211;53.452;-2.264;2023-08-12T11:58:20;20.50;99.90
6357;DHT22;3211;53.452;-2.264;2023-08-12T12:01:05;20.40;99.90
6357;DHT22;3211;53.452;-2.264;2023-08-12T12:03:51;20.40;99.90
6357;DHT22;3211;53.452;-2.264;2023-08-12T12:06:35;20.20;99.90
6357;DHT22;3211;53.452;-2.264;2023-08-12T12:09:18;20.20;1.00
6357;DHT22;3211;53.452;-2.264;2023-08-12T12:12:00;20.20;1.00
6357;DHT22;3211;53.452;-2.264;2023-08-12T12:14:42;20.20;1.00
6357;DHT22;3211;53.452;-2.264;2023-08-12T12:17:26;20.20;1.00
6357;DHT22;3211;53.452;-2.264;2023-08-12T12:20:08;20.10;99.90
6357;DHT22;3211;53.452;-2.264;2023-08-12T12:22:52;20.00;99.90
6357;DHT22;3211;53.452;-2.264;2023-08-12T12:25:35;20.10;99.90
6357;DHT22;3211;53.452;-2.264;2023-08-12T12:28:17;20.10;99.90
6357;DHT22;3211;53.452;-2.264;2023-08-12T12:30:59;20.20;99.90
6357;DHT22;3211;53.452;-2.264;2023-08-12T12:33:42;20.30;99.90
6357;DHT22;3211;53.452;-2.264;2023-08-12T12:36:24;20.40;99.90
6357;DHT22;3211;53.452;-2.264;2023-08-12T12:39:06;20.80;99.90
6357;DHT22;3211;53.452;-2.264;2023-08-12T12:41:49;20.90;79.90
6357;DHT22;3211;53.452;-2.264;2023-08-12T12:44:31;21.10;1.00
6357;DHT22;3211;53.452;-2.264;2023-08-12T12:47:13;21.00;1.00
6357;DHT22;3211;53.452;-2.264;2023-08-12T12:49:56;21.10;1.00
6357;DHT22;3211;53.452;-2.264;2023-08-12T12:52:38;21.10;1.00
6357;DHT22;3211;53.452;-2.264;2023-08-12T12:55:20;21.00;1.00
6357;DHT22;3211;53.452;-2.264;2023-08-12T12:58:02;21.30;1.00
6357;DHT22;3211;53.452;-2.264;2023-08-12T13:00:47;21.40;99.90
6357;DHT22;3211;53.452;-2.264;2023-08-12T13:03:30;21.40;99.90
6357;DHT22;3211;53.452;-2.264;2023-08-12T13:06:13;21.30;99.90
6357;DHT22;3211;53.452;-2.264;2023-08-12T13:08:55;21.10;1.00
6357;DHT22;3211;53.452;-2.264;2023-08-12T13:11:37;21.00;99.90
6357;DHT22;3211;53.452;-2.264;2023-08-12T13:14:19;21.20;99.90
6357;DHT22;3211;53.452;-2.264;2023-08-12T13:17:01;21.00;1.00
6357;DHT22;3211;53.452;-2.264;2023-08-12T13:19:43;20.70;99.90
6357;DHT22;3211;53.452;-2.264;2023-08-12T13:22:27;20.40;99.90
6357;DHT22;3211;53.452;-2.264;2023-08-12T13:25:09;20.20;99.90
6357;DHT22;3211;53.452;-2.264;2023-08-12T13:27:50;19.50;92.20
6357;DHT22;3211;53.452;-2.264;2023-08-12T13:30:33;19.30;99.90
6357;DHT22;3211;53.452;-2.264;2023-08-12T13:33:15;19.20;99.90
6357;DHT22;3211;53.452;-2.264;2023-08-12T13:35:57;19.20;99.90
6357;DHT22;3211;53.452;-2.264;2023-08-12T13:38:40;18.80;99.90
6357;DHT22;3211;53.452;-2.264;2023-08-12T13:41:22;18.60;99.90
6357;DHT22;3211;53.452;-2.264;2023-08-12T13:44:04;18.00;99.90
6357;DHT22;3211;53.452;-2.264;2023-08-12T13:46:46;17.80;99.90
6357;DHT22;3211;53.452;-2.264;2023-08-12T13:49:28;18.40;99.90
6357;DHT22;3211;53.452;-2.264;2023-08-12T13:52:10;19.00;99.90
6357;DHT22;3211;53.452;-2.264;2023-08-12T13:54:53;19.80;99.90
6357;DHT22;3211;53.452;-2.264;2023-08-12T13:57:35;20.00;71.00
6357;DHT22;3211;53.452;-2.264;2023-08-12T14:00:17;20.40;1.00
6357;DHT22;3211;53.452;-2.264;2023-08-12T14:02:59;20.70;99.90
6357;DHT22;3211;53.452;-2.264;2023-08-12T14:05:41;20.90;1.00
6357;DHT22;3211;53.452;-2.264;2023-08-12T14:08:24;21.20;1.00
6357;DHT22;3211;53.452;-2.264;2023-08-12T14:11:07;21.80;99.90
6357;DHT22;3211;53.452;-2.264;2023-08-12T14:13:49;22.00;99.90
6357;DHT22;3211;53.452;-2.264;2023-08-12T14:16:31;22.00;69.60
6357;DHT22;3211;53.452;-2.264;2023-08-12T14:19:13;21.80;99.90
6357;DHT22;3211;53.452;-2.264;2023-08-12T14:21:57;22.20;1.00
6357;DHT22;3211;53.452;-2.264;2023-08-12T14:24:39;22.90;1.00
6357;DHT22;3211;53.452;-2.264;2023-08-12T14:27:22;22.40;99.90
6357;DHT22;3211;53.452;-2.264;2023-08-12T14:30:05;22.30;1.00
6357;DHT22;3211;53.452;-2.264;2023-08-12T14:32:48;23.20;1.00
6357;DHT22;3211;53.452;-2.264;2023-08-12T14:35:30;23.60;99.90
6357;DHT22;3211;53.452;-2.264;2023-08-12T14:38:12;23.50;99.90
6357;DHT22;3211;53.452;-2.264;2023-08-12T14:40:54;23.60;78.60
6357;DHT22;3211;53.452;-2.264;2023-08-12T14:43:38;23.40;75.60
6357;DHT22;3211;53.452;-2.264;2023-08-12T14:46:19;23.90;40.60
6357;DHT22;3211;53.452;-2.264;2023-08-12T14:49:01;24.30;1.00
6357;DHT22;3211;53.452;-2.264;2023-08-12T14:51:44;23.50;1.00
6357;DHT22;3211;53.452;-2.264;2023-08-12T14:54:26;23.60;28.80
6357;DHT22;3211;53.452;-2.264;2023-08-12T14:57:08;24.10;1.00
6357;DHT22;3211;53.452;-2.264;2023-08-12T14:59:52;23.70;1.00
6357;DHT22;3211;53.452;-2.264;2023-08-12T15:02:33;26.30;99.90
6357;DHT22;3211;53.452;-2.264;2023-08-12T15:05:16;26.70;16.80
6357;DHT22;3211;53.452;-2.264;2023-08-12T15:07:58;26.20;1.00
6357;DHT22;3211;53.452;-2.264;2023-08-12T15:10:40;25.80;1.00
6357;DHT22;3211;53.452;-2.264;2023-08-12T15:13:22;25.80;1.00
6357;DHT22;3211;53.452;-2.264;2023-08-12T15:16:06;26.60;1.00
6357;DHT22;3211;53.452;-2.264;2023-08-12T15:18:48;25.60;1.00
6357;DHT22;3211;53.452;-2.264;2023-08-12T15:21:30;24.90;1.00
6357;DHT22;3211;53.452;-2.264;2023-08-12T15:24:12;23.70;51.20
6357;DHT22;3211;53.452;-2.264;2023-08-12T15:26:54;22.80;99.90
6357;DHT22;3211;53.452;-2.264;2023-08-12T15:29:36;22.00;99.90
6357;DHT22;3211;53.452;-2.264;2023-08-12T15:32:19;21.50;99.90
6357;DHT22;3211;53.452;-2.264;2023-08-12T15:35:01;21.60;1.00
6357;DHT22;3211;53.452;-2.264;2023-08-12T15:37:43;20.40;1.00
6357;DHT22;3211;53.452;-2.264;2023-08-12T15:40:25;20.40;1.00
6357;DHT22;3211;53.452;-2.264;2023-08-12T15:43:07;21.20;19.70
6357;DHT22;3211;53.452;-2.264;2023-08-12T15:45:49;22.90;1.00
6357;DHT22;3211;53.452;-2.264;2023-08-12T15:48:33;22.30;94.80
6357;DHT22;3211;53.452;-2.264;2023-08-12T15:51:15;21.40;99.90
6357;DHT22;3211;53.452;-2.264;2023-08-12T15:53:57;22.50;29.00
6357;DHT22;3211;53.452;-2.264;2023-08-12T15:56:39;24.70;99.90
6357;DHT22;3211;53.452;-2.264;2023-08-12T15:59:20;22.50;99.90
6357;DHT22;3211;53.452;-2.264;2023-08-12T16:02:02;21.50;99.90
6357;DHT22;3211;53.452;-2.264;2023-08-12T16:04:46;24.40;99.90
6357;DHT22;3211;53.452;-2.264;2023-08-12T16:07:28;22.60;99.90
6357;DHT22;3211;53.452;-2.264;2023-08-12T16:10:10;21.30;99.90
6357;DHT22;3211;53.452;-2.264;2023-08-12T16:12:52;20.80;99.90
6357;DHT22;3211;53.452;-2.264;2023-08-12T16:15:34;20.60;81.40
6357;DHT22;3211;53.452;-2.264;2023-08-12T16:18:16;20.90;99.90
6357;DHT22;3211;53.452;-2.264;2023-08-12T16:20:59;20.90;36.70
6357;DHT22;3211;53.452;-2.264;2023-08-12T16:23:41;22.70;99.90
6357;DHT22;3211;53.452;-2.264;2023-08-12T16:26:23;26.30;99.90
6357;DHT22;3211;53.452;-2.264;2023-08-12T16:29:05;25.30;99.90
6357;DHT22;3211;53.452;-2.264;2023-08-12T16:31:47;23.50;99.90
6357;DHT22;3211;53.452;-2.264;2023-08-12T16:34:29;21.40;99.90
6357;DHT22;3211;53.452;-2.264;2023-08-12T16:37:12;20.90;1.00
6357;DHT22;3211;53.452;-2.264;2023-08-12T16:39:54;20.50;1.00
6357;DHT22;3211;53.452;-2.264;2023-08-12T16:42:36;20.50;1.00
6357;DHT22;3211;53.452;-2.264;2023-08-12T16:45:18;20.50;1.00
6357;DHT22;3211;53.452;-2.264;2023-08-12T16:48:00;20.50;1.00
6357;DHT22;3211;53.452;-2.264;2023-08-12T16:50:43;20.50;20.80
6357;DHT22;3211;53.452;-2.264;2023-08-12T16:53:26;20.60;14.80
6357;DHT22;3211;53.452;-2.264;2023-08-12T16:56:08;20.60;1.00
6357;DHT22;3211;53.452;-2.264;2023-08-12T16:58:50;20.40;1.00
6357;DHT22;3211;53.452;-2.264;2023-08-12T17:01:32;20.40;1.00
6357;DHT22;3211;53.452;-2.264;2023-08-12T17:04:14;20.20;1.00
6357;DHT22;3211;53.452;-2.264;2023-08-12T17:06:56;20.30;1.00
6357;DHT22;3211;53.452;-2.264;2023-08-12T17:09:40;20.60;1.00
6357;DHT22;3211;53.452;-2.264;2023-08-12T17:12:22;21.20;1.00
6357;DHT22;3211;53.452;-2.264;2023-08-12T17:15:04;21.60;1.00
6357;DHT22;3211;53.452;-2.264;2023-08-12T17:17:47;21.30;1.00
6357;DHT22;3211;53.452;-2.264;2023-08-12T17:20:29;21.20;1.00
6357;DHT22;3211;53.452;-2.264;2023-08-12T17:23:10;21.50;1.00
6357;DHT22;3211;53.452;-2.264;2023-08-12T17:25:54;21.50;1.00
6357;DHT22;3211;53.452;-2.264;2023-08-12T17:28:36;21.50;1.00
6357;DHT22;3211;53.452;-2.264;2023-08-12T17:31:18;21.30;1.00